createdAt,value
2023-04-02T00:01:38.587Z,98587.61
2023-04-02T00:04:23.448Z,98587.17
2023-04-02T00:07:33.332Z,98590.02
2023-04-02T00:10:00.212Z,98595.51
2023-04-02T00:12:26.959Z,98602.06
2023-04-02T00:15:04.831Z,98602.10
2023-04-02T00:17:31.689Z,98598.28
2023-04-02T00:20:06.669Z,98604.05
2023-04-02T00:22:33.776Z,98601.61
2023-04-02T00:25:07.315Z,98599.64
2023-04-02T00:27:35.939Z,98602.86
2023-04-02T00:30:03.833Z,98599.32
2023-04-02T00:32:33.475Z,98594.55
2023-04-02T00:35:01.686Z,98592.80
2023-04-02T00:37:38.108Z,98586.60
2023-04-02T00:40:09.425Z,98583.59
2023-04-02T00:42:39.730Z,98581.67
2023-04-02T00:45:18.232Z,98584.02
2023-04-02T00:47:45.086Z,98578.72
2023-04-02T00:50:11.843Z,98572.60
2023-04-02T00:52:42.701Z,98565.95
2023-04-02T00:55:22.768Z,98570.55
2023-04-02T00:57:50.952Z,98566.50
2023-04-02T01:00:30.220Z,98565.48
2023-04-02T01:03:13.510Z,98565.46
2023-04-02T01:05:42.043Z,98569.90
2023-04-02T01:08:11.951Z,98571.64
2023-04-02T01:10:50.926Z,98572.31
2023-04-02T01:13:26.856Z,98577.18
2023-04-02T01:16:19.399Z,98576.73
2023-04-02T01:18:56.027Z,98583.16
2023-04-02T01:21:37.499Z,98585.48
2023-04-02T01:24:05.769Z,98587.85
2023-04-02T01:26:40.337Z,98590.12
2023-04-02T01:29:13.695Z,98591.08
2023-04-02T01:31:41.936Z,98587.39
2023-04-02T01:34:13.810Z,98581.17
2023-04-02T01:36:44.457Z,98579.39
2023-04-02T01:39:55.735Z,98582.86
2023-04-02T01:43:01.961Z,98590.21
2023-04-02T01:45:29.250Z,98592.19
2023-04-02T01:47:56.328Z,98602.55
2023-04-02T01:50:36.554Z,98604.34
2023-04-02T01:53:08.016Z,98607.34
2023-04-02T01:55:46.418Z,98611.14
2023-04-02T01:58:19.339Z,98613.99
2023-04-02T02:01:11.745Z,98611.70
2023-04-02T02:03:42.151Z,98606.33
2023-04-02T02:06:16.038Z,98617.38
2023-04-02T02:09:03.433Z,98613.90
2023-04-02T02:11:32.652Z,98614.75
2023-04-02T02:14:01.635Z,98609.87
2023-04-02T02:16:31.731Z,98609.23
2023-04-02T02:19:04.288Z,98607.60
2023-04-02T02:21:33.946Z,98607.77
2023-04-02T02:24:04.348Z,98608.42
2023-04-02T02:26:35.425Z,98608.86
2023-04-02T02:29:06.529Z,98613.27
2023-04-02T02:31:35.655Z,98615.63
2023-04-02T02:34:08.593Z,98617.51
2023-04-02T02:37:04.682Z,98625.98
2023-04-02T02:39:45.263Z,98629.16
2023-04-02T02:42:24.178Z,98630.63
2023-04-02T02:44:54.035Z,98621.91
2023-04-02T02:47:35.709Z,98629.86
2023-04-02T02:50:07.506Z,98629.02
2023-04-02T02:52:36.405Z,98634.92
2023-04-02T02:55:21.474Z,98636.95
2023-04-02T02:58:03.929Z,98636.58
2023-04-02T03:00:37.178Z,98640.98
2023-04-02T03:03:08.964Z,98642.01
2023-04-02T03:05:38.673Z,98643.08
2023-04-02T03:08:33.612Z,98641.83
2023-04-02T03:11:22.751Z,98641.09
2023-04-02T03:13:54.672Z,98644.66
2023-04-02T03:16:33.980Z,98646.97
2023-04-02T03:19:22.701Z,98644.30
2023-04-02T03:22:18.645Z,98645.26
2023-04-02T03:25:10.887Z,98641.69
2023-04-02T03:27:42.728Z,98640.25
2023-04-02T03:30:37.865Z,98638.10
2023-04-02T03:33:43.819Z,98639.44
2023-04-02T03:36:28.037Z,98637.80
2023-04-02T03:39:00.742Z,98637.18
2023-04-02T03:41:38.775Z,98639.67
2023-04-02T03:44:18.564Z,98643.71
2023-04-02T03:46:56.979Z,98641.36
2023-04-02T03:49:43.952Z,98644.46
2023-04-02T03:52:25.443Z,98649.02
2023-04-02T03:55:09.827Z,98650.05
2023-04-02T03:57:43.707Z,98651.77
2023-04-02T04:00:26.805Z,98652.63
2023-04-02T04:03:02.110Z,98657.83
2023-04-02T04:05:37.298Z,98662.33
2023-04-02T04:08:16.456Z,98664.96
2023-04-02T04:10:43.789Z,98670.35
2023-04-02T04:13:17.362Z,98668.73
2023-04-02T04:15:53.556Z,98672.36
2023-04-02T04:18:34.367Z,98673.51
2023-04-02T04:21:36.581Z,98674.77
2023-04-02T04:24:23.911Z,98677.61
2023-04-02T04:27:09.643Z,98679.89
2023-04-02T04:29:55.798Z,98681.30
2023-04-02T04:32:34.181Z,98687.44
2023-04-02T04:35:19.103Z,98689.55
2023-04-02T04:37:49.425Z,98694.21
2023-04-02T04:40:23.257Z,98694.95
2023-04-02T04:42:54.481Z,98701.18
2023-04-02T04:45:55.330Z,98704.80
2023-04-02T04:48:36.439Z,98704.11
2023-04-02T04:51:08.235Z,98709.19
2023-04-02T04:53:47.015Z,98711.27
2023-04-02T04:56:19.830Z,98711.52
2023-04-02T04:59:04.729Z,98716.94
2023-04-02T05:01:35.050Z,98713.63
2023-04-02T05:04:35.888Z,98717.39
2023-04-02T05:07:20.938Z,98720.70
2023-04-02T05:10:19.243Z,98719.71
2023-04-02T05:12:58.890Z,98719.66
2023-04-02T05:15:41.650Z,98721.60
2023-04-02T05:18:17.763Z,98723.63
2023-04-02T05:21:11.777Z,98723.90
2023-04-02T05:24:19.243Z,98726.48
2023-04-02T05:26:49.794Z,98726.48
2023-04-02T05:29:45.511Z,98731.39
2023-04-02T05:32:25.471Z,98732.53
2023-04-02T05:34:56.550Z,98733.61
2023-04-02T05:37:27.244Z,98734.36
2023-04-02T05:39:57.928Z,98735.23
2023-04-02T05:42:30.420Z,98740.08
2023-04-02T05:45:30.906Z,98741.98
2023-04-02T05:48:02.314Z,98744.83
2023-04-02T05:50:42.764Z,98746.73
2023-04-02T05:53:25.158Z,98746.20
2023-04-02T05:56:01.450Z,98749.00
2023-04-02T05:58:46.801Z,98750.62
2023-04-02T06:01:46.812Z,98756.60
2023-04-02T06:04:21.051Z,98758.39
2023-04-02T06:07:05.548Z,98762.02
2023-04-02T06:09:39.039Z,98765.17
2023-04-02T06:12:14.583Z,98765.60
2023-04-02T06:14:41.881Z,98769.63
2023-04-02T06:17:18.370Z,98768.30
2023-04-02T06:19:47.345Z,98767.14
2023-04-02T06:22:27.024Z,98768.08
2023-04-02T06:25:06.188Z,98771.73
2023-04-02T06:27:41.599Z,98771.02
2023-04-02T06:30:18.907Z,98777.86
2023-04-02T06:32:48.775Z,98777.33
2023-04-02T06:35:16.564Z,98779.80
2023-04-02T06:37:49.264Z,98779.88
2023-04-02T06:40:38.569Z,98780.67
2023-04-02T06:43:32.663Z,98783.31
2023-04-02T06:46:35.508Z,98780.02
2023-04-02T06:49:21.451Z,98788.44
2023-04-02T06:51:53.776Z,98794.70
2023-04-02T06:54:21.732Z,98790.98
2023-04-02T06:56:55.909Z,98794.35
2023-04-02T06:59:30.917Z,98795.01
2023-04-02T07:02:06.981Z,98797.64
2023-04-02T07:04:34.291Z,98807.98
2023-04-02T07:07:02.072Z,98806.92
2023-04-02T07:09:32.572Z,98813.75
2023-04-02T07:12:01.911Z,98818.02
2023-04-02T07:14:29.785Z,98811.36
2023-04-02T07:16:56.689Z,98822.98
2023-04-02T07:19:23.938Z,98822.80
2023-04-02T07:21:55.421Z,98822.52
2023-04-02T07:24:23.816Z,98826.08
2023-04-02T07:26:50.894Z,98827.80
2023-04-02T07:29:17.937Z,98830.20
2023-04-02T07:31:45.194Z,98830.41
2023-04-02T07:34:12.022Z,98835.20
2023-04-02T07:36:38.864Z,98836.56
2023-04-02T07:39:05.998Z,98840.90
2023-04-02T07:41:33.117Z,98845.63
2023-04-02T07:44:00.181Z,98844.37
2023-04-02T07:46:27.170Z,98849.09
2023-04-02T07:48:54.012Z,98852.66
2023-04-02T07:51:24.033Z,98852.77
2023-04-02T07:53:55.046Z,98857.95
2023-04-02T07:56:24.416Z,98858.55
2023-04-02T07:58:51.798Z,98860.73
2023-04-02T08:01:25.123Z,98864.13
2023-04-02T08:03:54.761Z,98869.34
2023-04-02T08:06:22.699Z,98868.45
2023-04-02T08:08:50.214Z,98867.92
2023-04-02T08:11:17.491Z,98865.37
2023-04-02T08:13:44.563Z,98865.59
2023-04-02T08:16:11.682Z,98867.02
2023-04-02T08:18:39.136Z,98867.73
2023-04-02T08:21:08.411Z,98871.96
2023-04-02T08:23:37.030Z,98872.35
2023-04-02T08:26:06.139Z,98878.37
2023-04-02T08:28:33.775Z,98877.95
2023-04-02T08:31:01.588Z,98876.50
2023-04-02T08:33:28.520Z,98877.65
2023-04-02T08:35:55.753Z,98877.02
2023-04-02T08:38:23.018Z,98880.60
2023-04-02T08:40:54.061Z,98876.05
2023-04-02T08:43:40.217Z,98882.09
2023-04-02T08:46:54.377Z,98883.77
2023-04-02T08:49:35.894Z,98889.58
2023-04-02T08:52:03.804Z,98889.74
2023-04-02T08:54:37.473Z,98887.31
2023-04-02T08:57:04.588Z,98889.95
2023-04-02T08:59:35.501Z,98893.14
2023-04-02T09:02:25.485Z,98893.45
2023-04-02T09:04:52.748Z,98895.80
2023-04-02T09:07:33.129Z,98895.45
2023-04-02T09:10:00.542Z,98898.51
2023-04-02T09:12:31.200Z,98896.43
2023-04-02T09:15:10.651Z,98900.13
2023-04-02T09:17:50.722Z,98903.71
2023-04-02T09:20:28.837Z,98904.48
2023-04-02T09:22:56.864Z,98906.45
2023-04-02T09:25:30.881Z,98907.91
2023-04-02T09:28:01.421Z,98908.20
2023-04-02T09:30:31.268Z,98909.77
2023-04-02T09:33:08.566Z,98910.76
2023-04-02T09:35:55.137Z,98912.20
2023-04-02T09:38:27.770Z,98913.87
2023-04-02T09:40:54.809Z,98916.68
2023-04-02T09:43:29.471Z,98915.41
2023-04-02T09:46:17.335Z,98921.48
2023-04-02T09:48:48.583Z,98924.82
2023-04-02T09:51:20.898Z,98927.35
2023-04-02T09:53:50.295Z,98928.00
2023-04-02T09:56:21.261Z,98928.54
2023-04-02T09:59:17.485Z,98925.48
2023-04-02T10:01:58.224Z,98924.46
2023-04-02T10:04:46.442Z,98925.55
2023-04-02T10:07:36.314Z,98925.98
2023-04-02T10:10:29.048Z,98927.91
2023-04-02T10:13:17.146Z,98926.17
2023-04-02T10:15:47.077Z,98930.50
2023-04-02T10:18:41.118Z,98928.52
2023-04-02T10:21:11.708Z,98928.90
2023-04-02T10:23:38.897Z,98930.91
2023-04-02T10:26:11.531Z,98933.98
2023-04-02T10:29:00.095Z,98930.55
2023-04-02T10:31:52.773Z,98928.88
2023-04-02T10:34:33.661Z,98929.27
2023-04-02T10:37:33.249Z,98931.08
2023-04-02T10:40:09.949Z,98930.09
2023-04-02T10:42:58.745Z,98929.37
2023-04-02T10:45:50.307Z,98926.70
2023-04-02T10:48:17.145Z,98925.17
2023-04-02T10:51:09.962Z,98931.54
2023-04-02T10:53:43.580Z,98931.23
2023-04-02T10:56:12.266Z,98931.08
2023-04-02T10:58:52.397Z,98930.21
2023-04-02T11:01:25.573Z,98922.55
2023-04-02T11:03:59.437Z,98928.30
2023-04-02T11:06:31.862Z,98928.17
2023-04-02T11:09:04.450Z,98927.02
2023-04-02T11:11:39.713Z,98929.16
2023-04-02T11:14:18.502Z,98920.10
2023-04-02T11:16:48.911Z,98918.91
2023-04-02T11:19:15.969Z,98915.77
2023-04-02T11:21:58.713Z,98913.56
2023-04-02T11:24:29.895Z,98917.23
2023-04-02T11:27:20.200Z,98913.83
2023-04-02T11:30:15.717Z,98917.20
2023-04-02T11:32:46.905Z,98915.09
2023-04-02T11:35:32.466Z,98916.93
2023-04-02T11:38:09.719Z,98923.39
2023-04-02T11:40:57.691Z,98922.25
2023-04-02T11:43:33.879Z,98924.34
2023-04-02T11:46:01.983Z,98923.57
2023-04-02T11:48:31.036Z,98923.23
2023-04-02T11:50:58.176Z,98922.17
2023-04-02T11:53:33.942Z,98922.94
2023-04-02T11:56:20.830Z,98921.52
2023-04-02T11:58:59.778Z,98917.05
2023-04-02T12:01:32.352Z,98918.58
2023-04-02T12:04:28.040Z,98923.17
2023-04-02T12:06:54.766Z,98925.83
2023-04-02T12:09:28.165Z,98924.92
2023-04-02T12:11:59.343Z,98916.74
2023-04-02T12:14:48.075Z,98917.31
2023-04-02T12:17:23.686Z,98916.98
2023-04-02T12:19:54.897Z,98921.34
2023-04-02T12:22:27.976Z,98924.55
2023-04-02T12:24:59.243Z,98929.13
2023-04-02T12:27:28.976Z,98927.79
2023-04-02T12:30:12.053Z,98924.69
2023-04-02T12:32:38.971Z,98927.80
2023-04-02T12:35:07.774Z,98928.61
2023-04-02T12:37:34.834Z,98924.27
2023-04-02T12:40:15.659Z,98930.55
2023-04-02T12:42:42.460Z,98930.54
2023-04-02T12:45:29.617Z,98927.16
2023-04-02T12:47:57.734Z,98926.36
2023-04-02T12:50:24.977Z,98924.89
2023-04-02T12:52:55.204Z,98926.14
2023-04-02T12:55:24.470Z,98922.88
2023-04-02T12:57:56.403Z,98922.14
2023-04-02T13:00:24.437Z,98926.58
2023-04-02T13:03:13.074Z,98934.45
2023-04-02T13:05:46.325Z,98935.11
2023-04-02T13:08:24.027Z,98936.78
2023-04-02T13:10:57.433Z,98935.09
2023-04-02T13:13:32.890Z,98937.09
2023-04-02T13:16:07.208Z,98936.81
2023-04-02T13:18:37.224Z,98943.14
2023-04-02T13:21:27.739Z,98932.39
2023-04-02T13:23:55.579Z,98939.42
2023-04-02T13:26:25.797Z,98941.56
2023-04-02T13:29:08.927Z,98944.41
2023-04-02T13:31:35.772Z,98945.48
2023-04-02T13:34:02.614Z,98955.88
2023-04-02T13:36:30.220Z,98958.41
2023-04-02T13:38:57.093Z,98960.73
2023-04-02T13:41:27.373Z,98959.95
2023-04-02T13:43:57.523Z,98958.33
2023-04-02T13:46:27.505Z,98955.14
2023-04-02T13:48:55.693Z,98953.49
2023-04-02T13:51:33.877Z,98955.03
2023-04-02T13:54:00.720Z,98953.38
2023-04-02T13:56:28.268Z,98955.74
2023-04-02T13:58:55.181Z,98961.66
2023-04-02T14:01:23.636Z,98964.14
2023-04-02T14:03:51.310Z,98965.36
2023-04-02T14:06:51.527Z,98966.47
2023-04-02T14:09:55.444Z,98970.48
2023-04-02T14:12:44.018Z,98971.94
2023-04-02T14:15:19.555Z,98969.89
2023-04-02T14:18:16.146Z,98969.88
2023-04-02T14:21:04.028Z,98974.95
2023-04-02T14:23:49.240Z,98973.50
2023-04-02T14:26:21.780Z,98971.80
2023-04-02T14:29:18.902Z,98975.91
2023-04-02T14:31:59.496Z,98979.17
2023-04-02T14:34:32.166Z,98976.92
2023-04-02T14:37:17.297Z,98979.60
2023-04-02T14:40:17.784Z,98984.67
2023-04-02T14:43:16.798Z,98983.31
2023-04-02T14:45:58.142Z,98991.83
2023-04-02T14:48:47.342Z,98989.50
2023-04-02T14:51:23.323Z,98992.21
2023-04-02T14:54:14.615Z,98993.42
2023-04-02T14:56:57.985Z,98995.27
2023-04-02T14:59:27.970Z,98993.57
2023-04-02T15:02:23.844Z,98993.34
2023-04-02T15:04:59.592Z,98997.02
2023-04-02T15:07:39.241Z,99001.86
2023-04-02T15:10:10.985Z,99000.34
2023-04-02T15:12:40.558Z,99002.17
2023-04-02T15:15:24.382Z,99006.64
2023-04-02T15:17:58.514Z,99003.81
2023-04-02T15:20:33.809Z,99009.56
2023-04-02T15:23:05.150Z,99010.50
2023-04-02T15:25:55.359Z,99015.37
2023-04-02T15:28:29.145Z,99019.17
2023-04-02T15:31:03.177Z,99020.43
2023-04-02T15:33:33.212Z,99025.66
2023-04-02T15:36:21.014Z,99026.53
2023-04-02T15:38:56.199Z,99027.50
2023-04-02T15:41:31.685Z,99032.05
2023-04-02T15:44:16.522Z,99037.73
2023-04-02T15:46:50.206Z,99040.83
2023-04-02T15:49:39.125Z,99040.04
2023-04-02T15:52:20.183Z,99041.50
2023-04-02T15:55:21.971Z,99039.53
2023-04-02T15:58:13.931Z,99039.42
2023-04-02T16:00:51.622Z,99037.88
2023-04-02T16:03:33.480Z,99047.45
2023-04-02T16:06:52.819Z,99052.61
2023-04-02T16:09:51.801Z,99048.65
2023-04-02T16:12:20.794Z,99051.51
2023-04-02T16:14:49.546Z,99053.48
2023-04-02T16:17:25.406Z,99051.48
2023-04-02T16:19:56.498Z,99047.65
2023-04-02T16:22:29.945Z,99050.36
2023-04-02T16:25:18.840Z,99055.91
2023-04-02T16:28:04.048Z,99058.46
2023-04-02T16:30:56.136Z,99062.41
2023-04-02T16:33:29.608Z,99065.16
2023-04-02T16:36:05.856Z,99065.76
2023-04-02T16:38:45.262Z,99064.39
2023-04-02T16:41:15.656Z,99066.80
2023-04-02T16:43:55.099Z,99073.14
2023-04-02T16:46:40.338Z,99069.28
2023-04-02T16:49:16.475Z,99079.70
2023-04-02T16:51:56.250Z,99080.27
2023-04-02T16:54:47.982Z,99075.18
2023-04-02T16:57:30.715Z,99075.81
2023-04-02T17:00:37.352Z,99076.80
2023-04-02T17:03:39.890Z,99076.33
2023-04-02T17:06:31.575Z,99083.48
2023-04-02T17:09:23.237Z,99083.47
2023-04-02T17:12:03.703Z,99085.73
2023-04-02T17:14:38.399Z,99087.35
2023-04-02T17:17:05.495Z,99095.46
2023-04-02T17:19:32.613Z,99098.17
2023-04-02T17:22:02.767Z,99103.95
2023-04-02T17:24:35.355Z,99102.25
2023-04-02T17:27:27.640Z,99108.73
2023-04-02T17:30:25.628Z,99111.16
2023-04-02T17:32:52.626Z,99109.80
2023-04-02T17:35:27.599Z,99109.27
2023-04-02T17:38:09.477Z,99111.89
2023-04-02T17:40:42.113Z,99112.89
2023-04-02T17:43:30.850Z,99117.38
2023-04-02T17:46:09.063Z,99119.81
2023-04-02T17:48:46.306Z,99124.18
2023-04-02T17:51:16.148Z,99129.36
2023-04-02T17:54:17.684Z,99129.89
2023-04-02T17:57:05.721Z,99133.86
2023-04-02T18:00:03.854Z,99139.52
2023-04-02T18:02:48.084Z,99144.77
2023-04-02T18:05:31.641Z,99143.38
2023-04-02T18:08:33.657Z,99154.54
2023-04-02T18:11:21.315Z,99155.28
2023-04-02T18:13:51.080Z,99160.72
2023-04-02T18:16:39.580Z,99166.66
2023-04-02T18:19:16.924Z,99172.86
2023-04-02T18:21:52.806Z,99176.58
2023-04-02T18:24:37.626Z,99182.37
2023-04-02T18:27:23.710Z,99186.27
2023-04-02T18:30:08.953Z,99186.45
2023-04-02T18:33:02.020Z,99187.73
2023-04-02T18:35:56.177Z,99188.49
2023-04-02T18:39:01.922Z,99193.22
2023-04-02T18:41:34.741Z,99197.27
2023-04-02T18:44:20.360Z,99198.89
2023-04-02T18:46:53.822Z,99194.30
2023-04-02T18:49:39.935Z,99198.70
2023-04-02T18:52:15.956Z,99201.67
2023-04-02T18:54:48.356Z,99201.06
2023-04-02T18:57:23.410Z,99203.59
2023-04-02T19:00:09.200Z,99208.45
2023-04-02T19:02:46.807Z,99212.66
2023-04-02T19:05:24.241Z,99218.34
2023-04-02T19:08:01.980Z,99217.61
2023-04-02T19:10:33.260Z,99210.41
2023-04-02T19:13:00.988Z,99220.98
2023-04-02T19:15:47.723Z,99225.27
2023-04-02T19:18:35.509Z,99224.30
2023-04-02T19:21:43.105Z,99224.71
2023-04-02T19:24:10.756Z,99229.27
2023-04-02T19:27:02.760Z,99229.56
2023-04-02T19:29:35.715Z,99232.91
2023-04-02T19:32:27.857Z,99237.55
2023-04-02T19:35:17.697Z,99237.52
2023-04-02T19:38:08.332Z,99239.44
2023-04-02T19:40:51.213Z,99240.80
2023-04-02T19:43:18.324Z,99238.27
2023-04-02T19:45:48.610Z,99245.40
2023-04-02T19:48:18.750Z,99245.91
2023-04-02T19:50:47.332Z,99249.65
2023-04-02T19:53:15.148Z,99249.38
2023-04-02T19:55:43.043Z,99247.92
2023-04-02T19:58:36.289Z,99251.48
2023-04-02T20:01:03.673Z,99259.12
2023-04-02T20:03:31.029Z,99259.55
2023-04-02T20:05:59.114Z,99265.95
2023-04-02T20:08:27.487Z,99264.13
2023-04-02T20:10:55.476Z,99264.18
2023-04-02T20:13:22.373Z,99264.80
2023-04-02T20:15:50.990Z,99268.10
2023-04-02T20:18:19.787Z,99271.55
2023-04-02T20:20:48.182Z,99268.21
2023-04-02T20:23:19.554Z,99269.59
2023-04-02T20:25:47.773Z,99277.11
2023-04-02T20:28:14.594Z,99277.46
2023-04-02T20:30:41.637Z,99282.64
2023-04-02T20:33:08.749Z,99283.11
2023-04-02T20:35:37.284Z,99283.05
2023-04-02T20:38:06.211Z,99282.95
2023-04-02T20:40:33.453Z,99287.38
2023-04-02T20:43:00.414Z,99289.34
2023-04-02T20:45:28.856Z,99285.52
2023-04-02T20:47:56.180Z,99293.20
2023-04-02T20:50:24.199Z,99287.34
2023-04-02T20:52:51.759Z,99285.98
2023-04-02T20:55:18.722Z,99288.91
2023-04-02T20:57:46.101Z,99285.92
2023-04-02T21:00:14.200Z,99289.58
2023-04-02T21:02:41.306Z,99294.41
2023-04-02T21:05:08.634Z,99287.45
2023-04-02T21:07:35.523Z,99294.30
2023-04-02T21:10:02.386Z,99292.31
2023-04-02T21:12:30.710Z,99294.04
2023-04-02T21:14:59.734Z,99297.04
2023-04-02T21:17:28.826Z,99300.02
2023-04-02T21:19:55.614Z,99297.95
2023-04-02T21:22:22.763Z,99297.85
2023-04-02T21:24:49.782Z,99303.41
2023-04-02T21:27:16.919Z,99302.20
2023-04-02T21:29:43.746Z,99298.66
2023-04-02T21:32:20.697Z,99300.15
2023-04-02T21:34:48.486Z,99301.13
2023-04-02T21:37:15.222Z,99309.37
2023-04-02T21:39:42.096Z,99307.31
2023-04-02T21:42:10.598Z,99309.66
2023-04-02T21:44:37.341Z,99310.07
2023-04-02T21:47:04.148Z,99309.11
2023-04-02T21:49:30.963Z,99308.67
2023-04-02T21:51:57.789Z,99310.48
2023-04-02T21:54:25.264Z,99312.14
2023-04-02T21:56:52.799Z,99308.72
2023-04-02T21:59:20.112Z,99312.80
2023-04-02T22:01:49.418Z,99312.19
2023-04-02T22:04:19.406Z,99311.27
2023-04-02T22:06:47.208Z,99316.38
2023-04-02T22:09:17.177Z,99314.00
2023-04-02T22:11:46.735Z,99318.34
2023-04-02T22:14:14.451Z,99321.52
2023-04-02T22:16:41.893Z,99320.10
2023-04-02T22:19:13.946Z,99320.84
2023-04-02T22:21:42.045Z,99318.04
2023-04-02T22:24:13.060Z,99322.58
2023-04-02T22:26:40.866Z,99324.35
2023-04-02T22:29:08.039Z,99325.67
2023-04-02T22:31:35.569Z,99326.77
2023-04-02T22:34:05.053Z,99333.27
2023-04-02T22:36:33.420Z,99333.64
2023-04-02T22:39:04.495Z,99332.71
2023-04-02T22:41:31.607Z,99328.71
2023-04-02T22:44:00.780Z,99333.70
2023-04-02T22:46:28.947Z,99335.91
2023-04-02T22:48:56.580Z,99337.11
2023-04-02T22:51:24.870Z,99338.04
2023-04-02T22:53:53.675Z,99337.70
2023-04-02T22:56:27.136Z,99337.46
2023-04-02T22:58:53.943Z,99341.41
2023-04-02T23:01:23.848Z,99340.76
2023-04-02T23:03:53.587Z,99342.55
2023-04-02T23:06:20.802Z,99338.75
2023-04-02T23:08:47.678Z,99342.58
2023-04-02T23:11:26.837Z,99341.55
2023-04-02T23:13:56.171Z,99343.09
2023-04-02T23:16:26.188Z,99343.23
2023-04-02T23:18:53.748Z,99341.80
2023-04-02T23:21:21.552Z,99337.08
2023-04-02T23:23:48.637Z,99337.09
2023-04-02T23:26:17.169Z,99334.40
2023-04-02T23:28:44.264Z,99335.09
2023-04-02T23:31:13.991Z,99337.34
2023-04-02T23:33:41.110Z,99332.43
2023-04-02T23:36:24.968Z,99330.86
2023-04-02T23:38:54.896Z,99328.60
2023-04-02T23:41:23.736Z,99328.67
2023-04-02T23:43:51.068Z,99330.03
2023-04-02T23:46:18.607Z,99335.02
2023-04-02T23:48:46.303Z,99333.05
2023-04-02T23:51:13.463Z,99333.20
2023-04-02T23:53:40.713Z,99336.70
2023-04-02T23:56:07.559Z,99337.08
2023-04-02T23:58:34.799Z,99339.20
